Time;durP1;ratioP1;P1;durP2;ratioP2;P2;SDS_P1;SDS_P2;PMS_P1;PMS_P2;Temp;Humidity;BMP_temperature;BMP_pressure;BME280_temperature;BME280_humidity;BME280_pressure;Samples;Min_cycle;Max_cycle;Signal;HPM_P1;HPM_P2
2023/05/30 00:00:13;;;;;;;0.93;0.93;;;;;;;18.14;59.19;95532.59;4366217;32;20238;-61
2023/05/30 00:02:39;;;;;;;0.90;0.90;;;;;;;18.04;58.49;95538.44;4343528;32;20182;-61
2023/05/30 00:05:04;;;;;;;0.87;0.87;;;;;;;18.00;59.33;95537.53;4362149;32;20195;-61
2023/05/30 00:07:31;;;;;;;1.53;1.43;;;;;;;18.00;61.10;95542.91;4364049;32;20250;-61
2023/05/30 00:09:56;;;;;;;1.30;1.07;;;;;;;18.02;61.16;95540.66;4368097;32;20211;-61
2023/05/30 00:12:21;;;;;;;1.70;0.87;;;;;;;17.94;61.93;95539.63;4368240;32;20173;-60
2023/05/30 00:14:47;;;;;;;1.13;1.03;;;;;;;17.72;63.16;95540.84;4363253;32;20222;-61
2023/05/30 00:17:16;;;;;;;1.40;1.30;;;;;;;17.53;63.09;95538.66;4359772;32;20192;-61
2023/05/30 00:19:42;;;;;;;1.07;1.03;;;;;;;17.60;63.87;95540.78;4359646;32;20188;-60
2023/05/30 00:22:07;;;;;;;1.10;1.10;;;;;;;17.46;64.21;95534.94;4360113;32;20232;-61
2023/05/30 00:24:33;;;;;;;2.10;1.77;;;;;;;17.34;64.20;95542.94;4368056;32;20199;-60
2023/05/30 00:26:58;;;;;;;1.30;1.30;;;;;;;17.30;64.58;95542.81;4360416;32;20264;-61
2023/05/30 00:29:23;;;;;;;1.90;1.20;;;;;;;17.34;64.94;95533.00;4344691;32;20209;-60
2023/05/30 00:31:49;;;;;;;2.00;1.90;;;;;;;17.45;64.74;95538.75;4371487;32;20193;-61
2023/05/30 00:34:14;;;;;;;0.70;0.70;;;;;;;17.41;65.00;95537.84;4363094;32;20232;-60
2023/05/30 00:36:39;;;;;;;1.10;1.10;;;;;;;17.39;64.91;95543.53;4371673;32;20250;-61
2023/05/30 00:39:05;;;;;;;1.87;1.77;;;;;;;17.36;65.36;95536.16;4371455;32;20240;-60
2023/05/30 00:41:30;;;;;;;2.00;1.77;;;;;;;17.28;65.42;95539.69;4352622;32;20190;-62
2023/05/30 00:43:55;;;;;;;1.23;1.23;;;;;;;17.33;65.46;95536.03;4343501;32;20204;-60
2023/05/30 00:46:23;;;;;;;4.27;1.83;;;;;;;17.43;64.99;95538.28;4380964;32;20193;-60
2023/05/30 00:48:49;;;;;;;1.73;1.63;;;;;;;17.34;65.14;95534.91;4357125;32;20244;-61
2023/05/30 00:51:16;;;;;;;8.03;1.60;;;;;;;17.42;65.20;95539.41;4356935;32;20185;-60
2023/05/30 00:53:42;;;;;;;1.97;1.83;;;;;;;17.40;65.14;95537.06;4356919;32;20185;-60
2023/05/30 00:56:08;;;;;;;1.20;1.20;;;;;;;17.24;65.83;95544.16;4361890;32;20193;-60
2023/05/30 00:58:34;;;;;;;1.40;1.30;;;;;;;17.33;65.94;95541.38;4354092;32;20194;-60
2023/05/30 01:01:01;;;;;;;1.93;1.83;;;;;;;17.43;65.62;95540.97;4350546;32;20311;-60
2023/05/30 01:03:32;;;;;;;1.40;1.40;;;;;;;17.49;65.59;95545.00;4343653;32;20201;-60
2023/05/30 01:05:59;;;;;;;1.43;1.33;;;;;;;17.38;66.09;95543.88;4372997;32;20191;-60
2023/05/30 01:08:25;;;;;;;1.13;1.13;;;;;;;17.43;65.95;95549.03;4362077;32;20189;-60
2023/05/30 01:10:57;;;;;;;2.50;1.63;;;;;;;17.13;67.13;95549.13;4365211;32;20191;-61
2023/05/30 01:13:29;;;;;;;1.07;0.97;;;;;;;17.36;66.34;95546.88;4360180;32;20185;-60
2023/05/30 01:16:07;;;;;;;1.13;1.03;;;;;;;17.40;65.54;95557.72;4337661;32;20235;-61
2023/05/30 01:18:41;;;;;;;2.27;1.77;;;;;;;17.03;66.38;95549.56;4353398;32;20259;-61
2023/05/30 01:21:11;;;;;;;0.90;0.90;;;;;;;17.00;64.69;95555.56;4368829;32;20195;-61
2023/05/30 01:24:05;;;;;;;2.57;1.77;;;;;;;16.95;64.60;95554.97;4359303;32;20188;-60
2023/05/30 01:27:13;;;;;;;1.27;1.27;;;;;;;16.79;64.40;95549.44;4356972;32;20196;-61
2023/05/30 01:29:41;;;;;;;1.53;1.43;;;;;;;16.53;64.39;95546.88;4287298;33;20204;-61
2023/05/30 01:32:07;;;;;;;1.13;1.13;;;;;;;16.54;64.45;95551.13;4297203;32;20258;-60
2023/05/30 01:34:33;;;;;;;1.83;1.73;;;;;;;16.52;65.13;95550.69;4335392;32;20359;-60
2023/05/30 01:36:58;;;;;;;1.03;1.03;;;;;;;16.59;66.15;95545.59;4368286;32;20181;-60
2023/05/30 01:39:23;;;;;;;0.50;0.50;;;;;;;16.72;65.79;95546.47;4365093;32;20181;-60
2023/05/30 01:42:02;;;;;;;1.80;1.70;;;;;;;16.64;64.09;95552.66;4366814;32;20203;-60
2023/05/30 01:44:36;;;;;;;1.27;1.17;;;;;;;16.64;65.47;95549.97;4346123;32;20173;-61
2023/05/30 01:47:11;;;;;;;1.57;1.00;;;;;;;16.58;64.12;95551.28;4364038;32;20185;-60
2023/05/30 01:49:51;;;;;;;0.80;0.80;;;;;;;16.70;64.84;95556.72;4380298;32;20251;-60
2023/05/30 01:52:20;;;;;;;1.47;1.37;;;;;;;16.64;65.02;95553.44;4364532;32;20193;-61
2023/05/30 01:54:54;;;;;;;0.90;0.90;;;;;;;16.67;64.77;95557.37;4347948;32;20197;-60
2023/05/30 01:57:20;;;;;;;0.97;0.97;;;;;;;16.71;64.68;95558.31;4364838;32;20185;-60
2023/05/30 01:59:47;;;;;;;1.23;1.23;;;;;;;16.69;64.56;95557.84;4351431;32;20184;-61
2023/05/30 02:02:12;;;;;;;1.13;1.13;;;;;;;16.63;64.65;95559.91;4377855;32;20194;-64
2023/05/30 02:04:38;;;;;;;1.30;1.23;;;;;;;16.77;64.95;95562.38;4365588;32;20199;-60
2023/05/30 02:07:03;;;;;;;2.33;1.37;;;;;;;16.75;64.86;95561.91;4357164;32;20177;-60
2023/05/30 02:09:29;;;;;;;1.53;1.43;;;;;;;16.73;64.38;95558.75;4358345;32;20173;-60
2023/05/30 02:11:55;;;;;;;2.27;1.77;;;;;;;16.61;64.69;95556.78;4364226;32;20283;-60
2023/05/30 02:14:22;;;;;;;1.10;1.00;;;;;;;16.64;65.50;95553.44;4367898;32;20184;-61
2023/05/30 02:16:48;;;;;;;1.07;1.07;;;;;;;16.64;65.01;95560.69;4366352;32;20249;-60
2023/05/30 02:19:14;;;;;;;0.97;0.97;;;;;;;16.58;65.43;95556.63;4355544;32;20197;-60
2023/05/30 02:21:40;;;;;;;1.47;1.37;;;;;;;16.58;64.02;95560.09;4353065;32;20223;-61
2023/05/30 02:24:05;;;;;;;1.67;1.57;;;;;;;16.66;64.95;95566.53;4364770;32;20192;-60
2023/05/30 02:26:31;;;;;;;1.40;1.40;;;;;;;16.64;64.69;95563.38;4372713;32;20199;-61
2023/05/30 02:28:56;;;;;;;0.60;0.60;;;;;;;16.66;64.33;95566.53;4361848;32;20207;-61
2023/05/30 02:31:21;;;;;;;3.03;1.17;;;;;;;16.69;63.94;95565.87;4354910;32;20186;-60
2023/05/30 02:33:47;;;;;;;1.40;1.30;;;;;;;16.59;64.60;95566.25;4352841;32;20196;-60
2023/05/30 02:36:12;;;;;;;0.67;0.67;;;;;;;16.63;63.73;95561.78;4352557;32;20185;-60
2023/05/30 02:38:38;;;;;;;1.23;1.20;;;;;;;16.56;62.77;95564.22;4362172;32;20261;-60
2023/05/30 02:41:03;;;;;;;0.70;0.70;;;;;;;16.60;64.05;95562.47;4358254;32;20178;-60
2023/05/30 02:43:28;;;;;;;16.13;1.13;;;;;;;16.65;63.92;95554.22;4359800;32;20251;-61
2023/05/30 02:45:54;;;;;;;0.93;0.93;;;;;;;16.45;60.67;95567.25;4361557;32;20283;-61
2023/05/30 02:48:20;;;;;;;1.90;1.63;;;;;;;16.35;61.88;95564.16;4349242;32;20200;-61
2023/05/30 02:50:45;;;;;;;0.97;0.97;;;;;;;16.27;64.26;95565.78;4353765;32;20169;-61
2023/05/30 02:53:11;;;;;;;1.40;1.20;;;;;;;16.19;60.27;95566.63;4346208;32;20192;-60
2023/05/30 02:55:37;;;;;;;2.43;1.57;;;;;;;16.10;61.79;95560.50;4362763;32;20181;-61
2023/05/30 02:58:03;;;;;;;1.00;1.00;;;;;;;16.18;62.54;95566.94;4363616;32;20364;-61
2023/05/30 03:00:28;;;;;;;6.80;1.97;;;;;;;15.99;61.81;95562.00;4345241;32;20196;-61
2023/05/30 03:02:54;;;;;;;0.93;0.93;;;;;;;15.92;63.38;95569.72;4366793;32;20172;-62
2023/05/30 03:05:19;;;;;;;1.33;1.27;;;;;;;16.01;62.44;95568.56;4363888;32;20173;-61
2023/05/30 03:07:45;;;;;;;11.80;2.07;;;;;;;16.09;63.29;95575.00;4370390;32;20232;-61
2023/05/30 03:10:10;;;;;;;1.50;1.40;;;;;;;16.02;61.51;95570.13;4355225;32;20193;-61
2023/05/30 03:12:35;;;;;;;1.37;1.27;;;;;;;15.95;63.63;95564.53;4352959;32;20264;-61
2023/05/30 03:15:01;;;;;;;0.50;0.50;;;;;;;15.91;62.19;95565.47;4376520;32;20188;-60
2023/05/30 03:17:26;;;;;;;0.73;0.73;;;;;;;16.02;64.01;95561.31;4367533;32;20213;-61
2023/05/30 03:19:52;;;;;;;0.37;0.37;;;;;;;16.13;64.24;95570.56;4363080;32;20189;-60
2023/05/30 03:22:17;;;;;;;1.03;1.03;;;;;;;16.28;64.17;95569.25;4366789;32;20185;-60
2023/05/30 03:24:42;;;;;;;2.53;0.57;;;;;;;16.37;64.01;95570.78;4360189;32;20177;-64
2023/05/30 03:27:08;;;;;;;0.90;0.90;;;;;;;16.33;63.02;95569.06;4369672;32;20203;-61
2023/05/30 03:29:34;;;;;;;0.60;0.60;;;;;;;16.31;60.95;95572.06;4347622;32;20199;-61
2023/05/30 03:31:59;;;;;;;1.33;1.27;;;;;;;16.35;63.75;95567.63;4348393;32;20199;-61
2023/05/30 03:34:25;;;;;;;0.70;0.70;;;;;;;16.42;62.92;95573.25;4353290;32;20232;-60
2023/05/30 03:36:52;;;;;;;0.77;0.77;;;;;;;16.29;62.97;95578.84;4357055;32;20256;-61
2023/05/30 03:39:21;;;;;;;0.87;0.87;;;;;;;16.18;60.84;95580.31;4357833;32;20208;-61
2023/05/30 03:41:46;;;;;;;1.13;1.13;;;;;;;16.35;61.09;95573.00;4351102;32;20199;-61
2023/05/30 03:44:12;;;;;;;1.07;1.07;;;;;;;16.33;63.19;95574.41;4353623;32;20245;-61
2023/05/30 03:46:37;;;;;;;1.23;1.23;;;;;;;16.36;63.53;95574.56;4366318;32;20185;-61
2023/05/30 03:49:02;;;;;;;0.90;0.90;;;;;;;16.23;61.69;95575.56;4377462;32;20325;-62
2023/05/30 03:51:28;;;;;;;3.70;1.27;;;;;;;16.40;64.15;95578.16;4347827;32;20207;-61
2023/05/30 03:53:53;;;;;;;1.57;1.47;;;;;;;16.38;63.61;95572.34;4364133;32;20208;-61
2023/05/30 03:56:18;;;;;;;1.50;1.07;;;;;;;16.34;62.52;95578.66;4365069;32;20189;-60
2023/05/30 03:58:44;;;;;;;0.93;0.93;;;;;;;16.50;64.31;95574.31;4357118;32;20185;-61
2023/05/30 04:01:10;;;;;;;1.27;1.23;;;;;;;16.50;64.27;95580.47;4345540;32;20181;-61
2023/05/30 04:03:37;;;;;;;2.23;1.27;;;;;;;16.49;64.23;95578.88;4355160;32;20181;-61
2023/05/30 04:06:03;;;;;;;1.03;1.03;;;;;;;16.50;63.00;95575.09;4351094;32;20233;-61
2023/05/30 04:08:28;;;;;;;0.80;0.80;;;;;;;16.43;63.90;95585.53;4355801;32;20231;-61
2023/05/30 04:10:53;;;;;;;1.03;1.03;;;;;;;16.36;63.24;95587.94;4368272;32;20196;-60
2023/05/30 04:13:19;;;;;;;0.87;0.87;;;;;;;16.22;61.85;95586.59;4362183;32;20189;-61
2023/05/30 04:15:44;;;;;;;0.77;0.77;;;;;;;16.17;63.88;95582.22;4360537;32;20210;-61
2023/05/30 04:18:10;;;;;;;0.77;0.77;;;;;;;16.36;64.67;95585.28;4369291;32;20196;-61
2023/05/30 04:20:36;;;;;;;1.10;1.07;;;;;;;16.54;64.33;95580.59;4349835;32;20165;-61
2023/05/30 04:23:01;;;;;;;0.60;0.60;;;;;;;16.70;64.19;95578.16;4366971;32;20185;-61
2023/05/30 04:25:27;;;;;;;0.80;0.80;;;;;;;16.59;63.23;95583.09;4359358;32;20223;-62
2023/05/30 04:27:54;;;;;;;0.87;0.87;;;;;;;16.70;64.11;95599.59;4376160;32;20188;-60
2023/05/30 04:30:20;;;;;;;1.07;1.07;;;;;;;16.70;62.39;95589.66;4363045;32;20184;-61
2023/05/30 04:32:45;;;;;;;1.53;1.10;;;;;;;16.41;61.82;95593.13;4358135;32;20323;-61
2023/05/30 04:35:13;;;;;;;0.53;0.53;;;;;;;16.34;61.90;95603.56;4367740;32;20196;-61
2023/05/30 04:37:43;;;;;;;1.27;1.17;;;;;;;16.35;63.86;95602.44;4368201;32;20193;-61
2023/05/30 04:40:12;;;;;;;1.00;1.00;;;;;;;16.37;64.71;95605.59;4359973;32;20240;-61
2023/05/30 04:42:38;;;;;;;0.90;0.90;;;;;;;16.50;63.16;95601.88;4358016;32;20185;-61
2023/05/30 04:45:04;;;;;;;0.93;0.93;;;;;;;16.50;63.64;95609.13;4355246;32;20253;-60
2023/05/30 04:47:30;;;;;;;1.20;1.20;;;;;;;16.41;63.89;95609.19;4365620;32;20235;-60
2023/05/30 04:50:00;;;;;;;0.70;0.70;;;;;;;16.40;62.68;95612.97;4364847;32;20204;-61
2023/05/30 04:52:28;;;;;;;0.70;0.70;;;;;;;16.38;64.47;95614.41;4346283;32;20291;-61
2023/05/30 04:54:55;;;;;;;1.07;1.00;;;;;;;16.45;63.10;95615.47;4357360;32;20276;-61
2023/05/30 04:57:20;;;;;;;1.87;1.70;;;;;;;16.43;61.34;95622.25;4355102;32;20227;-61
2023/05/30 04:59:46;;;;;;;0.80;0.80;;;;;;;16.22;60.99;95627.53;4359868;32;20188;-61
2023/05/30 05:02:12;;;;;;;1.63;0.70;;;;;;;16.25;64.50;95626.87;4370579;32;20212;-61
2023/05/30 05:04:38;;;;;;;1.07;1.07;;;;;;;16.21;61.14;95619.84;4366646;32;20189;-60
2023/05/30 05:07:03;;;;;;;0.50;0.50;;;;;;;16.30;65.45;95621.38;4355222;32;20230;-61
2023/05/30 05:09:32;;;;;;;1.33;1.23;;;;;;;16.16;61.90;95618.13;4362659;32;20192;-61
2023/05/30 05:11:57;;;;;;;1.20;1.20;;;;;;;16.46;64.47;95618.91;4355843;32;20189;-61
2023/05/30 05:14:23;;;;;;;1.97;1.40;;;;;;;16.50;64.41;95620.63;4364977;32;20188;-61
2023/05/30 05:16:48;;;;;;;0.80;0.80;;;;;;;16.49;63.38;95621.75;4360770;32;20237;-60
2023/05/30 05:19:14;;;;;;;0.90;0.90;;;;;;;16.60;64.02;95622.16;4357892;32;20207;-61
2023/05/30 05:21:40;;;;;;;0.90;0.90;;;;;;;16.33;61.18;95622.62;4348915;32;20234;-61
2023/05/30 05:24:07;;;;;;;1.47;1.37;;;;;;;16.47;63.84;95629.31;4366795;32;20204;-61
2023/05/30 05:26:32;;;;;;;1.67;1.57;;;;;;;16.33;62.54;95636.78;4370560;32;20184;-61
2023/05/30 05:28:58;;;;;;;1.03;1.03;;;;;;;16.48;62.53;95632.78;4368805;32;20199;-61
2023/05/30 05:31:23;;;;;;;0.50;0.50;;;;;;;16.55;62.81;95637.62;4356693;32;20186;-61
2023/05/30 05:33:49;;;;;;;0.80;0.80;;;;;;;16.36;60.94;95633.47;4342576;32;20182;-61
2023/05/30 05:36:14;;;;;;;1.63;0.93;;;;;;;16.44;61.37;95640.66;4353955;32;20189;-61
2023/05/30 05:38:40;;;;;;;0.67;0.67;;;;;;;16.38;63.78;95635.84;4356597;32;20193;-60
2023/05/30 05:41:05;;;;;;;0.80;0.80;;;;;;;16.53;63.23;95632.59;4361562;32;20207;-61
2023/05/30 05:43:31;;;;;;;1.53;1.53;;;;;;;16.60;62.70;95637.47;4354012;32;20256;-60
2023/05/30 05:45:56;;;;;;;0.90;0.90;;;;;;;16.49;59.80;95643.16;4361456;32;20260;-61
2023/05/30 05:48:21;;;;;;;3.67;0.93;;;;;;;16.52;61.47;95640.97;4357233;32;20219;-61
2023/05/30 05:50:47;;;;;;;0.80;0.80;;;;;;;16.73;62.68;95639.13;4364333;32;20201;-61
2023/05/30 05:53:12;;;;;;;1.83;0.97;;;;;;;16.74;59.04;95644.19;4349362;32;20192;-61
2023/05/30 05:55:38;;;;;;;2.77;1.87;;;;;;;16.67;60.41;95651.13;4349332;32;20185;-60
2023/05/30 05:58:03;;;;;;;0.60;0.60;;;;;;;16.65;61.81;95645.31;4358678;32;20200;-60
2023/05/30 06:00:30;;;;;;;6.13;1.60;;;;;;;16.75;59.68;95644.97;4352545;32;20244;-60
2023/05/30 06:02:55;;;;;;;1.50;1.17;;;;;;;16.63;60.77;95642.97;4364276;32;20273;-61
2023/05/30 06:05:21;;;;;;;0.80;0.80;;;;;;;16.75;58.18;95647.63;4348378;32;20181;-61
2023/05/30 06:07:46;;;;;;;2.37;1.77;;;;;;;16.85;58.97;95647.25;4364719;32;20181;-61
2023/05/30 06:10:11;;;;;;;2.07;1.90;;;;;;;16.83;59.35;95649.50;4366514;32;20235;-61
2023/05/30 06:12:37;;;;;;;1.30;1.20;;;;;;;16.90;57.89;95651.66;4360626;32;20173;-61
2023/05/30 06:15:02;;;;;;;8.43;2.57;;;;;;;17.01;57.62;95655.53;4363788;32;20515;-61
2023/05/30 06:17:28;;;;;;;0.97;0.97;;;;;;;17.21;58.78;95662.00;4349210;32;20189;-61
2023/05/30 06:19:54;;;;;;;1.57;1.47;;;;;;;17.14;56.74;95655.28;4348384;32;20182;-61
2023/05/30 06:22:19;;;;;;;1.57;1.47;;;;;;;17.26;58.94;95654.53;4348118;32;20177;-61
2023/05/30 06:24:46;;;;;;;7.73;1.43;;;;;;;17.28;57.88;95656.91;4336188;32;20228;-61
2023/05/30 06:27:12;;;;;;;0.90;0.70;;;;;;;17.33;56.97;95662.06;4369759;32;20184;-61
2023/05/30 06:29:37;;;;;;;0.60;0.60;;;;;;;17.45;58.04;95662.94;4362664;32;20199;-62
2023/05/30 06:32:03;;;;;;;1.50;1.40;;;;;;;17.59;56.76;95662.66;4361649;32;20275;-61
2023/05/30 06:34:28;;;;;;;1.90;1.47;;;;;;;17.45;56.53;95664.84;4362736;32;20203;-61
2023/05/30 06:36:54;;;;;;;3.83;1.40;;;;;;;17.59;56.55;95673.38;4359351;32;20181;-61
2023/05/30 06:39:19;;;;;;;0.90;0.90;;;;;;;17.67;55.75;95675.22;4353377;32;20207;-61
2023/05/30 06:41:45;;;;;;;6.07;2.27;;;;;;;17.69;56.33;95673.00;4356131;32;20253;-62
2023/05/30 06:44:11;;;;;;;1.07;1.07;;;;;;;17.86;56.59;95666.69;4359913;32;20189;-61
2023/05/30 06:46:37;;;;;;;8.67;1.00;;;;;;;17.96;54.90;95668.16;4354169;32;20184;-61
2023/05/30 06:49:03;;;;;;;0.80;0.80;;;;;;;17.90;54.14;95672.97;4369568;32;20181;-61
2023/05/30 06:51:28;;;;;;;1.10;1.00;;;;;;;17.84;55.41;95676.97;4365146;32;20185;-61
2023/05/30 06:53:53;;;;;;;1.33;1.33;;;;;;;17.88;56.83;95677.88;4353458;32;20173;-61
2023/05/30 06:56:19;;;;;;;0.90;0.90;;;;;;;17.87;56.12;95674.41;4343771;32;20229;-61
2023/05/30 06:58:44;;;;;;;0.90;0.90;;;;;;;17.90;56.00;95672.16;4367593;32;20188;-61
2023/05/30 07:01:10;;;;;;;5.50;1.70;;;;;;;17.98;56.80;95672.09;4362480;32;20189;-62
2023/05/30 07:03:35;;;;;;;2.30;1.30;;;;;;;18.10;57.13;95677.50;4356889;32;20193;-61
2023/05/30 07:06:02;;;;;;;1.40;1.33;;;;;;;18.18;58.08;95683.91;4380900;32;20181;-61
2023/05/30 07:08:27;;;;;;;0.80;0.53;;;;;;;18.40;54.97;95680.00;4350315;32;20177;-61
2023/05/30 07:10:52;;;;;;;1.00;1.00;;;;;;;18.67;54.39;95675.94;4356948;32;20188;-62
2023/05/30 07:13:18;;;;;;;0.73;0.73;;;;;;;18.75;53.42;95680.41;4357405;32;20193;-62
2023/05/30 07:15:43;;;;;;;0.87;0.70;;;;;;;18.72;53.89;95675.69;4361790;32;20177;-64
2023/05/30 07:18:09;;;;;;;0.80;0.73;;;;;;;18.52;54.16;95682.69;4372673;32;20189;-61
2023/05/30 07:20:34;;;;;;;1.10;1.00;;;;;;;18.61;53.60;95677.25;4357724;32;20201;-62
2023/05/30 07:22:59;;;;;;;6.30;2.00;;;;;;;18.58;54.28;95685.97;4368252;32;20195;-61
2023/05/30 07:25:24;;;;;;;0.50;0.50;;;;;;;18.64;55.24;95673.91;4366690;32;20223;-61
2023/05/30 07:27:50;;;;;;;1.37;1.30;;;;;;;18.63;55.10;95677.72;4354658;32;20181;-61
2023/05/30 07:30:15;;;;;;;2.47;0.87;;;;;;;18.53;54.52;95676.22;4352985;32;20228;-62
2023/05/30 07:32:40;;;;;;;1.67;1.57;;;;;;;18.66;52.52;95669.00;4353075;32;20177;-61
2023/05/30 07:35:06;;;;;;;1.27;0.87;;;;;;;18.65;53.89;95664.72;4335890;32;20189;-61
2023/05/30 07:37:31;;;;;;;0.93;0.93;;;;;;;18.77;52.55;95670.09;4368821;32;20176;-61
2023/05/30 07:39:57;;;;;;;1.10;1.10;;;;;;;18.70;52.49;95659.13;4364813;32;20189;-61
2023/05/30 07:42:22;;;;;;;0.73;0.73;;;;;;;18.64;52.66;95669.31;4363485;32;20193;-61
2023/05/30 07:44:47;;;;;;;1.10;1.10;;;;;;;18.58;53.35;95667.16;4353091;32;20194;-61
2023/05/30 07:47:13;;;;;;;2.27;1.63;;;;;;;18.64;53.28;95660.47;4361968;32;20188;-61
2023/05/30 07:49:38;;;;;;;0.87;0.87;;;;;;;18.68;52.79;95664.06;4365307;32;20185;-61
2023/05/30 07:52:04;;;;;;;0.97;0.97;;;;;;;18.86;52.67;95665.41;4367174;32;20177;-61
2023/05/30 07:54:30;;;;;;;0.97;0.97;;;;;;;18.76;52.48;95658.56;4340113;32;20185;-61
2023/05/30 07:56:55;;;;;;;2.63;1.33;;;;;;;18.74;53.86;95668.06;4366932;32;20173;-61
2023/05/30 07:59:20;;;;;;;1.13;1.13;;;;;;;18.85;52.65;95669.22;4366203;32;20216;-61
2023/05/30 08:01:46;;;;;;;1.43;1.30;;;;;;;18.82;51.47;95669.88;4357446;32;20244;-61
2023/05/30 08:04:12;;;;;;;0.83;0.83;;;;;;;18.86;52.60;95660.03;4363979;32;20180;-61
2023/05/30 08:06:37;;;;;;;1.53;1.43;;;;;;;19.02;51.88;95673.56;4353206;32;20255;-62
2023/05/30 08:09:02;;;;;;;1.10;1.10;;;;;;;19.02;52.05;95666.28;4362278;32;20336;-61
2023/05/30 08:11:29;;;;;;;2.03;0.97;;;;;;;19.14;51.69;95670.84;4356200;32;20201;-61
2023/05/30 08:13:55;;;;;;;1.23;1.17;;;;;;;19.16;53.07;95672.06;4363788;32;20181;-61
2023/05/30 08:16:21;;;;;;;0.90;0.90;;;;;;;19.12;51.85;95668.47;4362770;32;20184;-61
2023/05/30 08:18:46;;;;;;;1.03;1.03;;;;;;;19.09;52.26;95669.19;4360041;32;20350;-61
2023/05/30 08:21:12;;;;;;;0.67;0.67;;;;;;;19.12;52.24;95668.47;4362610;32;20200;-61
2023/05/30 08:23:37;;;;;;;1.97;1.80;;;;;;;19.12;51.68;95668.47;4352897;32;20244;-61
2023/05/30 08:26:03;;;;;;;0.83;0.83;;;;;;;19.08;52.71;95669.53;4368215;32;20275;-61
2023/05/30 08:28:28;;;;;;;1.47;1.37;;;;;;;19.06;51.93;95669.84;4359807;32;20186;-62
2023/05/30 08:30:54;;;;;;;0.67;0.67;;;;;;;19.08;53.60;95664.94;4351776;32;20212;-62
2023/05/30 08:33:21;;;;;;;1.23;1.23;;;;;;;19.12;53.81;95679.25;4361475;32;20195;-61
2023/05/30 08:35:46;;;;;;;2.53;1.50;;;;;;;19.19;54.35;95674.09;4371753;32;20220;-61
2023/05/30 08:38:14;;;;;;;1.53;1.43;;;;;;;19.27;54.72;95675.09;4361089;32;20192;-61
2023/05/30 08:40:44;;;;;;;0.60;0.60;;;;;;;19.20;55.04;95675.66;4363814;32;20188;-61
2023/05/30 08:43:09;;;;;;;1.00;1.00;;;;;;;19.15;54.26;95673.19;4365955;32;20244;-61
2023/05/30 08:45:35;;;;;;;1.00;1.00;;;;;;;19.22;54.33;95673.41;4367978;32;20181;-61
2023/05/30 08:48:01;;;;;;;4.23;0.80;;;;;;;19.28;54.71;95673.19;4372639;32;20255;-61
2023/05/30 08:50:28;;;;;;;0.90;0.90;;;;;;;19.29;56.15;95677.44;4362001;32;20247;-61
2023/05/30 08:52:57;;;;;;;1.37;1.27;;;;;;;19.40;55.06;95670.44;4342814;32;20184;-61
2023/05/30 08:55:33;;;;;;;1.00;1.00;;;;;;;19.45;54.22;95672.91;4357159;32;20189;-61
2023/05/30 08:58:22;;;;;;;1.07;1.07;;;;;;;19.41;55.98;95675.50;4361067;32;20184;-61
2023/05/30 09:00:48;;;;;;;1.30;1.30;;;;;;;19.51;54.75;95671.59;4347386;32;20181;-61
2023/05/30 09:03:15;;;;;;;0.90;0.90;;;;;;;19.67;53.60;95677.03;4359460;32;20217;-61
2023/05/30 09:05:41;;;;;;;0.67;0.67;;;;;;;19.70;53.75;95677.13;4362854;32;20186;-61
2023/05/30 09:08:08;;;;;;;2.23;1.40;;;;;;;19.73;53.82;95667.59;4370617;32;20176;-61
2023/05/30 09:10:35;;;;;;;0.70;0.70;;;;;;;19.84;53.04;95672.13;4366355;32;20355;-61
2023/05/30 09:13:00;;;;;;;0.83;0.83;;;;;;;19.92;52.36;95677.72;4361193;32;20207;-61
2023/05/30 09:15:26;;;;;;;1.00;1.00;;;;;;;19.86;51.35;95675.25;4350196;32;20248;-61
2023/05/30 09:17:51;;;;;;;1.20;1.17;;;;;;;19.92;51.04;95678.50;4365177;32;20200;-61
2023/05/30 09:20:17;;;;;;;0.77;0.77;;;;;;;19.96;50.53;95675.88;4338513;32;20204;-61
2023/05/30 09:22:44;;;;;;;0.60;0.60;;;;;;;19.93;50.45;95669.28;4346969;32;20188;-62
2023/05/30 09:25:12;;;;;;;1.00;1.00;;;;;;;19.98;50.95;95676.31;4361959;32;20192;-62
2023/05/30 09:27:38;;;;;;;6.80;1.63;;;;;;;20.18;50.68;95669.91;4350171;32;20193;-61
2023/05/30 09:30:10;;;;;;;0.70;0.70;;;;;;;20.28;50.18;95679.41;4363912;32;20285;-61
2023/05/30 09:32:37;;;;;;;0.40;0.40;;;;;;;20.39;49.73;95678.56;4361597;32;20198;-61
2023/05/30 09:35:09;;;;;;;1.73;1.43;;;;;;;20.40;49.94;95677.44;4361823;32;20200;-61
2023/05/30 09:37:40;;;;;;;0.93;0.93;;;;;;;20.46;49.47;95680.69;4354606;32;20268;-61
2023/05/30 09:40:09;;;;;;;0.87;0.83;;;;;;;20.50;49.14;95681.56;4347684;32;20190;-61
2023/05/30 09:42:52;;;;;;;0.63;0.63;;;;;;;20.54;49.49;95677.81;4365880;32;20252;-61
2023/05/30 09:45:22;;;;;;;0.83;0.83;;;;;;;20.50;49.80;95679.63;4361801;32;20188;-61
2023/05/30 09:47:50;;;;;;;1.07;1.07;;;;;;;20.75;48.35;95682.16;4364730;32;20189;-61
2023/05/30 09:50:18;;;;;;;0.70;0.70;;;;;;;20.86;48.51;95683.19;4369968;32;20209;-61
2023/05/30 09:52:44;;;;;;;0.80;0.80;;;;;;;20.87;48.28;95671.25;4373831;32;20188;-62
2023/05/30 09:55:13;;;;;;;1.47;0.83;;;;;;;20.90;47.65;95670.56;4371695;32;20200;-61
2023/05/30 09:57:40;;;;;;;2.77;1.40;;;;;;;20.89;48.54;95677.09;4369138;32;20256;-61
2023/05/30 10:00:09;;;;;;;0.70;0.70;;;;;;;21.06;48.19;95676.72;4369334;32;20235;-61
2023/05/30 10:02:36;;;;;;;0.73;0.73;;;;;;;21.18;47.67;95676.62;4369868;32;20199;-61
2023/05/30 10:05:02;;;;;;;24.87;1.80;;;;;;;21.30;47.46;95680.34;4354264;32;20193;-61
2023/05/30 10:07:27;;;;;;;1.10;1.00;;;;;;;21.27;47.51;95666.41;4358876;32;20197;-61
2023/05/30 10:09:55;;;;;;;0.67;0.67;;;;;;;21.27;47.24;95677.22;4354778;32;20200;-62
2023/05/30 10:12:20;;;;;;;1.07;1.07;;;;;;;21.41;46.85;95670.53;4361526;32;20196;-61
2023/05/30 10:14:46;;;;;;;2.93;0.83;;;;;;;21.36;47.72;95668.94;4372905;32;20334;-61
2023/05/30 10:17:16;;;;;;;1.07;1.07;;;;;;;21.47;46.92;95669.91;4351063;32;20185;-61
2023/05/30 10:19:49;;;;;;;0.97;0.97;;;;;;;21.54;47.07;95667.38;4363603;32;20235;-61
2023/05/30 10:22:15;;;;;;;0.90;0.90;;;;;;;21.52;46.88;95674.25;4346875;32;20200;-61
2023/05/30 10:24:47;;;;;;;0.77;0.77;;;;;;;21.59;46.07;95661.69;4368354;32;20205;-61
2023/05/30 10:27:24;;;;;;;1.67;1.37;;;;;;;21.53;45.69;95667.72;4348837;32;20244;-62
2023/05/30 10:30:03;;;;;;;0.97;0.97;;;;;;;21.40;45.98;95660.91;4356178;32;20209;-61
2023/05/30 10:32:32;;;;;;;3.00;2.80;;;;;;;21.45;46.54;95663.31;4345089;32;20189;-61
2023/05/30 10:35:05;;;;;;;2.10;1.50;;;;;;;21.48;46.41;95654.50;4354764;32;20197;-61
2023/05/30 10:37:32;;;;;;;0.47;0.40;;;;;;;21.55;46.04;95663.53;4359491;32;20212;-62
2023/05/30 10:40:22;;;;;;;1.10;0.87;;;;;;;21.39;46.42;95662.03;4360567;32;20209;-62
2023/05/30 10:42:55;;;;;;;0.73;0.73;;;;;;;21.44;46.74;95653.62;4353803;32;20195;-61
2023/05/30 10:45:31;;;;;;;0.90;0.90;;;;;;;21.66;46.41;95649.47;4368321;32;20200;-61
2023/05/30 10:48:25;;;;;;;0.87;0.87;;;;;;;21.75;45.90;95647.34;4354108;32;20247;-61
2023/05/30 10:50:54;;;;;;;5.63;1.73;;;;;;;21.86;45.30;95653.72;4353476;32;20342;-61
2023/05/30 10:53:20;;;;;;;1.07;1.07;;;;;;;21.69;44.54;95644.13;4355817;32;20208;-61
2023/05/30 10:55:48;;;;;;;1.53;0.80;;;;;;;21.59;44.10;95645.50;4372174;32;20188;-61
2023/05/30 10:58:42;;;;;;;0.40;0.40;;;;;;;21.60;44.37;95641.66;4361863;32;20262;-61
2023/05/30 11:01:30;;;;;;;0.60;0.60;;;;;;;21.82;44.48;95647.47;4349023;32;20211;-61
2023/05/30 11:04:06;;;;;;;0.77;0.77;;;;;;;21.76;43.35;95636.19;4374469;32;20256;-61
2023/05/30 11:06:36;;;;;;;0.60;0.60;;;;;;;21.85;41.75;95642.13;4349828;32;20203;-62
2023/05/30 11:09:07;;;;;;;0.50;0.50;;;;;;;21.75;40.82;95642.72;4360148;32;20245;-61
2023/05/30 11:11:37;;;;;;;0.80;0.80;;;;;;;21.60;40.94;95630.06;4367758;32;20256;-61
2023/05/30 11:14:05;;;;;;;0.67;0.67;;;;;;;21.70;41.33;95634.88;4357165;32;20228;-61
2023/05/30 11:16:30;;;;;;;0.50;0.50;;;;;;;21.77;42.08;95645.06;4360196;32;20181;-61
2023/05/30 11:19:11;;;;;;;0.87;0.73;;;;;;;21.92;41.79;95641.47;4363868;32;20274;-61
2023/05/30 11:22:10;;;;;;;1.20;1.10;;;;;;;22.03;41.53;95641.72;4360898;32;20189;-61
2023/05/30 11:24:36;;;;;;;0.90;0.90;;;;;;;22.26;40.04;95637.88;4356034;32;20185;-61
2023/05/30 11:27:07;;;;;;;0.40;0.40;;;;;;;22.26;38.09;95634.37;4359372;32;20228;-61
2023/05/30 11:29:35;;;;;;;0.70;0.70;;;;;;;22.24;38.85;95640.16;4360308;32;20193;-61
2023/05/30 11:32:01;;;;;;;1.27;1.17;;;;;;;22.22;39.63;95650.56;4362587;32;20216;-61
2023/05/30 11:34:27;;;;;;;0.63;0.63;;;;;;;22.22;38.71;95637.06;4378259;32;20248;-61